sensor_id;sensor_type;location;lat;lon;timestamp;pressure;altitude;pressure_sealevel;temperature;humidity
76448;BME280;65284;51.040;13.722;2023-04-03T00:00:32;101002.31;;;2.91;64.30
76448;BME280;65284;51.040;13.722;2023-04-03T00:02:58;101000.28;;;2.81;65.09
76448;BME280;65284;51.040;13.722;2023-04-03T00:05:25;101006.03;;;2.71;64.55
76448;BME280;65284;51.040;13.722;2023-04-03T00:07:51;101004.53;;;2.67;64.93
76448;BME280;65284;51.040;13.722;2023-04-03T00:10:18;101006.56;;;2.62;64.63
76448;BME280;65284;51.040;13.722;2023-04-03T00:12:44;101008.16;;;2.65;64.84
76448;BME280;65284;51.040;13.722;2023-04-03T00:15:11;101010.97;;;2.62;64.61
76448;BME280;65284;51.040;13.722;2023-04-03T00:17:37;101010.19;;;2.60;64.27
76448;BME280;65284;51.040;13.722;2023-04-03T00:20:04;101023.66;;;2.54;64.73
76448;BME280;65284;51.040;13.722;2023-04-03T00:22:31;101014.75;;;2.56;65.37
76448;BME280;65284;51.040;13.722;2023-04-03T00:24:58;101026.19;;;2.55;64.90
76448;BME280;65284;51.040;13.722;2023-04-03T00:27:24;101026.38;;;2.52;65.01
76448;BME280;65284;51.040;13.722;2023-04-03T00:29:51;101026.88;;;2.43;65.10
76448;BME280;65284;51.040;13.722;2023-04-03T00:32:17;101032.78;;;2.46;65.49
76448;BME280;65284;51.040;13.722;2023-04-03T00:34:44;101039.03;;;2.44;65.68
76448;BME280;65284;51.040;13.722;2023-04-03T00:37:10;101038.19;;;2.43;65.72
76448;BME280;65284;51.040;13.722;2023-04-03T00:39:36;101030.75;;;2.36;65.26
76448;BME280;65284;51.040;13.722;2023-04-03T00:42:03;101038.44;;;2.39;65.54
76448;BME280;65284;51.040;13.722;2023-04-03T00:46:59;101034.03;;;2.39;64.97
76448;BME280;65284;51.040;13.722;2023-04-03T00:49:26;101041.38;;;2.33;65.31
76448;BME280;65284;51.040;13.722;2023-04-03T00:51:55;101032.06;;;2.27;65.16
76448;BME280;65284;51.040;13.722;2023-04-03T00:54:22;101030.22;;;2.29;64.75
76448;BME280;65284;51.040;13.722;2023-04-03T00:56:51;101036.81;;;2.20;65.22
76448;BME280;65284;51.040;13.722;2023-04-03T00:59:24;101042.38;;;2.14;65.09
76448;BME280;65284;51.040;13.722;2023-04-03T01:01:54;101030.22;;;2.13;65.60
76448;BME280;65284;51.040;13.722;2023-04-03T01:04:35;101038.66;;;2.18;64.78
76448;BME280;65284;51.040;13.722;2023-04-03T01:07:08;101040.19;;;2.22;65.12
76448;BME280;65284;51.040;13.722;2023-04-03T01:09:36;101044.84;;;2.17;65.17
76448;BME280;65284;51.040;13.722;2023-04-03T01:12:15;101050.47;;;2.10;65.12
76448;BME280;65284;51.040;13.722;2023-04-03T01:14:45;101044.06;;;2.15;64.48
76448;BME280;65284;51.040;13.722;2023-04-03T01:17:35;101051.13;;;1.97;64.93
76448;BME280;65284;51.040;13.722;2023-04-03T01:23:03;101056.13;;;2.02;64.95
76448;BME280;65284;51.040;13.722;2023-04-03T01:25:48;101055.84;;;1.91;65.86
76448;BME280;65284;51.040;13.722;2023-04-03T01:28:28;101059.41;;;1.90;65.41
76448;BME280;65284;51.040;13.722;2023-04-03T01:33:46;101062.91;;;1.89;64.19
76448;BME280;65284;51.040;13.722;2023-04-03T01:36:18;101061.25;;;1.88;64.76
76448;BME280;65284;51.040;13.722;2023-04-03T01:38:44;101070.56;;;1.93;65.11
76448;BME280;65284;51.040;13.722;2023-04-03T01:41:11;101074.34;;;1.88;65.14
76448;BME280;65284;51.040;13.722;2023-04-03T01:43:37;101069.72;;;1.93;64.52
76448;BME280;65284;51.040;13.722;2023-04-03T01:46:03;101079.56;;;1.88;64.03
76448;BME280;65284;51.040;13.722;2023-04-03T01:48:30;101081.72;;;1.62;64.75
76448;BME280;65284;51.040;13.722;2023-04-03T01:50:56;101083.34;;;1.65;64.78
76448;BME280;65284;51.040;13.722;2023-04-03T01:53:23;101076.97;;;1.70;64.85
76448;BME280;65284;51.040;13.722;2023-04-03T01:55:49;101077.06;;;1.69;64.36
76448;BME280;65284;51.040;13.722;2023-04-03T01:58:16;101086.50;;;1.71;64.38
76448;BME280;65284;51.040;13.722;2023-04-03T02:00:42;101090.53;;;1.61;65.08
76448;BME280;65284;51.040;13.722;2023-04-03T02:03:09;101089.16;;;1.54;65.04
76448;BME280;65284;51.040;13.722;2023-04-03T02:05:35;101085.59;;;1.55;64.17
76448;BME280;65284;51.040;13.722;2023-04-03T02:08:02;101088.22;;;1.55;63.98
76448;BME280;65284;51.040;13.722;2023-04-03T02:10:28;101089.22;;;1.52;64.85
76448;BME280;65284;51.040;13.722;2023-04-03T02:12:54;101101.28;;;1.38;65.66
76448;BME280;65284;51.040;13.722;2023-04-03T02:15:21;101098.38;;;1.44;64.90
76448;BME280;65284;51.040;13.722;2023-04-03T02:17:48;101102.22;;;1.36;65.16
76448;BME280;65284;51.040;13.722;2023-04-03T02:20:14;101100.81;;;1.29;64.72
76448;BME280;65284;51.040;13.722;2023-04-03T02:22:41;101102.66;;;1.27;65.02
76448;BME280;65284;51.040;13.722;2023-04-03T02:25:08;101104.81;;;1.19;65.58
76448;BME280;65284;51.040;13.722;2023-04-03T02:27:36;101101.41;;;1.17;65.01
76448;BME280;65284;51.040;13.722;2023-04-03T02:30:03;101107.19;;;1.24;65.35
76448;BME280;65284;51.040;13.722;2023-04-03T02:32:30;101107.56;;;1.16;65.50
76448;BME280;65284;51.040;13.722;2023-04-03T02:34:56;101111.03;;;1.17;65.48
76448;BME280;65284;51.040;13.722;2023-04-03T02:37:23;101112.16;;;1.11;66.17
76448;BME280;65284;51.040;13.722;2023-04-03T02:39:50;101110.63;;;1.07;65.39
76448;BME280;65284;51.040;13.722;2023-04-03T02:42:16;101115.72;;;0.91;65.89
76448;BME280;65284;51.040;13.722;2023-04-03T02:44:42;101122.38;;;0.98;65.87
76448;BME280;65284;51.040;13.722;2023-04-03T02:47:09;101124.50;;;0.90;66.44
76448;BME280;65284;51.040;13.722;2023-04-03T02:49:35;101114.13;;;1.06;65.43
76448;BME280;65284;51.040;13.722;2023-04-03T02:52:02;101121.78;;;0.91;66.20
76448;BME280;65284;51.040;13.722;2023-04-03T02:54:28;101133.56;;;0.83;66.69
76448;BME280;65284;51.040;13.722;2023-04-03T02:56:57;101137.75;;;0.85;66.27
76448;BME280;65284;51.040;13.722;2023-04-03T02:59:24;101136.22;;;0.81;66.42
76448;BME280;65284;51.040;13.722;2023-04-03T03:01:50;101124.50;;;0.90;66.66
76448;BME280;65284;51.040;13.722;2023-04-03T03:04:17;101136.41;;;0.77;66.77
76448;BME280;65284;51.040;13.722;2023-04-03T03:06:43;101132.25;;;0.73;67.18
76448;BME280;65284;51.040;13.722;2023-04-03T03:09:10;101141.03;;;0.72;66.98
76448;BME280;65284;51.040;13.722;2023-04-03T03:11:36;101138.75;;;0.64;67.12
76448;BME280;65284;51.040;13.722;2023-04-03T03:14:03;101148.38;;;0.63;67.38
76448;BME280;65284;51.040;13.722;2023-04-03T03:16:29;101148.03;;;0.71;66.70
76448;BME280;65284;51.040;13.722;2023-04-03T03:18:56;101147.94;;;0.54;67.25
76448;BME280;65284;51.040;13.722;2023-04-03T03:21:24;101156.53;;;0.37;68.25
76448;BME280;65284;51.040;13.722;2023-04-03T03:23:50;101152.13;;;0.37;67.67
76448;BME280;65284;51.040;13.722;2023-04-03T03:26:16;101145.34;;;0.33;68.04
76448;BME280;65284;51.040;13.722;2023-04-03T03:28:43;101139.59;;;0.45;67.70
76448;BME280;65284;51.040;13.722;2023-04-03T03:31:09;101150.84;;;0.27;68.89
76448;BME280;65284;51.040;13.722;2023-04-03T03:33:36;101150.34;;;0.19;68.89
76448;BME280;65284;51.040;13.722;2023-04-03T03:36:03;101156.47;;;0.18;68.94
76448;BME280;65284;51.040;13.722;2023-04-03T03:38:29;101157.78;;;0.08;69.10
76448;BME280;65284;51.040;13.722;2023-04-03T03:40:56;101156.72;;;0.12;69.40
76448;BME280;65284;51.040;13.722;2023-04-03T03:43:22;101158.84;;;0.04;69.36
76448;BME280;65284;51.040;13.722;2023-04-03T03:45:52;101158.84;;;0.04;69.77
76448;BME280;65284;51.040;13.722;2023-04-03T03:48:19;101158.03;;;0.02;69.44
76448;BME280;65284;51.040;13.722;2023-04-03T03:50:47;101161.75;;;-0.04;70.04
76448;BME280;65284;51.040;13.722;2023-04-03T03:53:14;101169.16;;;0.07;69.82
76448;BME280;65284;51.040;13.722;2023-04-03T03:55:41;101165.06;;;-0.01;69.56
76448;BME280;65284;51.040;13.722;2023-04-03T03:58:07;101165.84;;;-0.19;70.45
76448;BME280;65284;51.040;13.722;2023-04-03T04:00:34;101168.84;;;-0.28;70.76
76448;BME280;65284;51.040;13.722;2023-04-03T04:03:00;101160.72;;;-0.20;70.75
76448;BME280;65284;51.040;13.722;2023-04-03T04:05:27;101169.66;;;-0.26;71.24
76448;BME280;65284;51.040;13.722;2023-04-03T04:07:54;101164.00;;;-0.37;72.08
76448;BME280;65284;51.040;13.722;2023-04-03T04:10:20;101164.59;;;-0.31;72.52
76448;BME280;65284;51.040;13.722;2023-04-03T04:12:47;101171.00;;;-0.38;72.85
76448;BME280;65284;51.040;13.722;2023-04-03T04:15:15;101179.19;;;-0.47;73.14
76448;BME280;65284;51.040;13.722;2023-04-03T04:17:41;101172.13;;;-0.45;73.01
76448;BME280;65284;51.040;13.722;2023-04-03T04:20:08;101179.25;;;-0.49;73.12
76448;BME280;65284;51.040;13.722;2023-04-03T04:22:35;101184.03;;;-0.38;73.42
76448;BME280;65284;51.040;13.722;2023-04-03T04:25:01;101186.94;;;-0.46;73.47
76448;BME280;65284;51.040;13.722;2023-04-03T04:27:27;101183.91;;;-0.57;73.96
76448;BME280;65284;51.040;13.722;2023-04-03T04:29:54;101192.91;;;-0.64;74.34
76448;BME280;65284;51.040;13.722;2023-04-03T04:32:21;101200.53;;;-0.59;73.87
76448;BME280;65284;51.040;13.722;2023-04-03T04:34:47;101189.97;;;-0.56;73.86
76448;BME280;65284;51.040;13.722;2023-04-03T04:37:14;101198.16;;;-0.65;74.27
76448;BME280;65284;51.040;13.722;2023-04-03T04:39:40;101195.16;;;-0.77;74.73
76448;BME280;65284;51.040;13.722;2023-04-03T04:42:07;101193.25;;;-0.73;74.82
76448;BME280;65284;51.040;13.722;2023-04-03T04:44:39;101204.44;;;-0.70;74.52
76448;BME280;65284;51.040;13.722;2023-04-03T04:47:06;101203.56;;;-0.70;74.65
76448;BME280;65284;51.040;13.722;2023-04-03T04:49:32;101205.03;;;-0.63;74.72
76448;BME280;65284;51.040;13.722;2023-04-03T04:51:58;101201.84;;;-0.71;75.07
76448;BME280;65284;51.040;13.722;2023-04-03T04:54:25;101214.00;;;-0.70;74.75
76448;BME280;65284;51.040;13.722;2023-04-03T04:56:51;101219.69;;;-0.82;74.84
76448;BME280;65284;51.040;13.722;2023-04-03T04:59:18;101219.59;;;-0.79;74.95
76448;BME280;65284;51.040;13.722;2023-04-03T05:01:47;101225.41;;;-0.73;74.63
76448;BME280;65284;51.040;13.722;2023-04-03T05:04:13;101231.94;;;-0.84;75.00
76448;BME280;65284;51.040;13.722;2023-04-03T05:06:40;101221.19;;;-0.99;75.24
76448;BME280;65284;51.040;13.722;2023-04-03T05:09:06;101225.59;;;-1.01;76.12
76448;BME280;65284;51.040;13.722;2023-04-03T05:11:33;101232.28;;;-0.94;76.44
76448;BME280;65284;51.040;13.722;2023-04-03T05:13:59;101225.81;;;-0.83;76.02
76448;BME280;65284;51.040;13.722;2023-04-03T05:16:25;101221.97;;;-0.73;75.09
76448;BME280;65284;51.040;13.722;2023-04-03T05:18:52;101236.56;;;-0.69;74.70
76448;BME280;65284;51.040;13.722;2023-04-03T05:21:18;101235.00;;;-0.73;74.94
76448;BME280;65284;51.040;13.722;2023-04-03T05:23:45;101232.06;;;-0.65;74.66
76448;BME280;65284;51.040;13.722;2023-04-03T05:26:11;101237.25;;;-0.64;74.65
76448;BME280;65284;51.040;13.722;2023-04-03T05:28:38;101240.41;;;-0.56;74.71
76448;BME280;65284;51.040;13.722;2023-04-03T05:31:04;101240.94;;;-0.48;74.63
76448;BME280;65284;51.040;13.722;2023-04-03T05:33:31;101235.09;;;-0.53;74.41
76448;BME280;65284;51.040;13.722;2023-04-03T05:36:02;101228.81;;;-0.49;74.22
76448;BME280;65284;51.040;13.722;2023-04-03T05:38:29;101237.09;;;-0.37;73.84
76448;BME280;65284;51.040;13.722;2023-04-03T05:40:56;101235.50;;;-0.41;73.75
76448;BME280;65284;51.040;13.722;2023-04-03T05:43:22;101240.94;;;-0.48;74.32
76448;BME280;65284;51.040;13.722;2023-04-03T05:45:49;101242.59;;;-0.45;74.38
76448;BME280;65284;51.040;13.722;2023-04-03T05:48:15;101242.31;;;-0.37;74.16
76448;BME280;65284;51.040;13.722;2023-04-03T05:50:42;101244.91;;;-0.37;74.33
76448;BME280;65284;51.040;13.722;2023-04-03T05:53:19;101249.22;;;-0.36;73.65
76448;BME280;65284;51.040;13.722;2023-04-03T05:55:46;101244.66;;;-0.31;73.85
76448;BME280;65284;51.040;13.722;2023-04-03T05:58:13;101250.63;;;-0.28;73.45
76448;BME280;65284;51.040;13.722;2023-04-03T06:00:40;101252.03;;;-0.41;74.01
76448;BME280;65284;51.040;13.722;2023-04-03T06:03:06;101253.66;;;-0.38;73.78
76448;BME280;65284;51.040;13.722;2023-04-03T06:05:33;101252.63;;;-0.34;74.11
76448;BME280;65284;51.040;13.722;2023-04-03T06:07:59;101253.53;;;-0.35;73.67
76448;BME280;65284;51.040;13.722;2023-04-03T06:10:26;101250.06;;;-0.36;73.81
76448;BME280;65284;51.040;13.722;2023-04-03T06:12:53;101250.00;;;-0.34;73.75
76448;BME280;65284;51.040;13.722;2023-04-03T06:15:19;101257.59;;;-0.28;73.61
76448;BME280;65284;51.040;13.722;2023-04-03T06:17:46;101255.94;;;-0.31;73.75
76448;BME280;65284;51.040;13.722;2023-04-03T06:20:13;101262.94;;;-0.31;73.48
76448;BME280;65284;51.040;13.722;2023-04-03T06:22:39;101262.94;;;-0.31;73.70
76448;BME280;65284;51.040;13.722;2023-04-03T06:25:08;101261.41;;;-0.37;73.73
76448;BME280;65284;51.040;13.722;2023-04-03T06:27:36;101265.91;;;-0.40;73.66
76448;BME280;65284;51.040;13.722;2023-04-03T06:30:03;101265.56;;;-0.31;74.13
76448;BME280;65284;51.040;13.722;2023-04-03T06:32:29;101267.47;;;-0.36;73.96
76448;BME280;65284;51.040;13.722;2023-04-03T06:34:56;101261.00;;;-0.26;73.99
76448;BME280;65284;51.040;13.722;2023-04-03T06:37:23;101271.56;;;-0.29;73.99
76448;BME280;65284;51.040;13.722;2023-04-03T06:39:55;101267.91;;;-0.25;73.59
76448;BME280;65284;51.040;13.722;2023-04-03T06:42:23;101269.34;;;-0.18;73.40
76448;BME280;65284;51.040;13.722;2023-04-03T06:44:50;101272.84;;;-0.17;73.61
76448;BME280;65284;51.040;13.722;2023-04-03T06:47:16;101274.16;;;-0.07;72.66
76448;BME280;65284;51.040;13.722;2023-04-03T06:49:43;101273.75;;;-0.18;73.24
76448;BME280;65284;51.040;13.722;2023-04-03T06:52:11;101273.50;;;-0.12;73.18
76448;BME280;65284;51.040;13.722;2023-04-03T06:54:39;101270.47;;;-0.02;72.59
76448;BME280;65284;51.040;13.722;2023-04-03T06:57:06;101278.84;;;0.07;72.68
76448;BME280;65284;51.040;13.722;2023-04-03T06:59:33;101276.16;;;0.08;72.49
76448;BME280;65284;51.040;13.722;2023-04-03T07:01:59;101281.50;;;0.05;72.27
76448;BME280;65284;51.040;13.722;2023-04-03T07:04:26;101280.66;;;0.05;72.12
76448;BME280;65284;51.040;13.722;2023-04-03T07:06:52;101289.78;;;-0.06;72.69
76448;BME280;65284;51.040;13.722;2023-04-03T07:09:19;101290.97;;;0.08;72.38
76448;BME280;65284;51.040;13.722;2023-04-03T07:11:45;101290.00;;;0.10;72.32
76448;BME280;65284;51.040;13.722;2023-04-03T07:14:11;101286.69;;;0.07;72.15
76448;BME280;65284;51.040;13.722;2023-04-03T07:16:38;101299.22;;;0.19;72.06
76448;BME280;65284;51.040;13.722;2023-04-03T07:19:07;101296.31;;;0.05;71.69
76448;BME280;65284;51.040;13.722;2023-04-03T07:21:35;101300.34;;;-0.09;71.82
76448;BME280;65284;51.040;13.722;2023-04-03T07:24:01;101306.19;;;-0.02;72.27
76448;BME280;65284;51.040;13.722;2023-04-03T07:26:28;101299.22;;;0.19;72.00
76448;BME280;65284;51.040;13.722;2023-04-03T07:28:54;101306.69;;;0.28;72.08
76448;BME280;65284;51.040;13.722;2023-04-03T07:31:20;101311.25;;;0.23;71.31
76448;BME280;65284;51.040;13.722;2023-04-03T07:33:47;101309.56;;;0.22;71.06
76448;BME280;65284;51.040;13.722;2023-04-03T07:36:19;101308.13;;;0.15;71.17
76448;BME280;65284;51.040;13.722;2023-04-03T07:38:46;101305.44;;;0.16;71.40
76448;BME280;65284;51.040;13.722;2023-04-03T07:41:15;101316.97;;;0.11;71.76
76448;BME280;65284;51.040;13.722;2023-04-03T07:43:41;101311.50;;;0.17;71.74
76448;BME280;65284;51.040;13.722;2023-04-03T07:46:08;101311.97;;;0.27;71.29
76448;BME280;65284;51.040;13.722;2023-04-03T07:48:35;101315.16;;;0.13;71.43
76448;BME280;65284;51.040;13.722;2023-04-03T07:51:02;101322.44;;;0.05;71.43
76448;BME280;65284;51.040;13.722;2023-04-03T07:53:29;101325.22;;;0.22;71.19
76448;BME280;65284;51.040;13.722;2023-04-03T07:55:57;101315.38;;;0.29;71.30
76448;BME280;65284;51.040;13.722;2023-04-03T07:58:24;101320.84;;;0.44;71.08
76448;BME280;65284;51.040;13.722;2023-04-03T08:00:51;101327.81;;;0.64;70.45
76448;BME280;65284;51.040;13.722;2023-04-03T08:03:18;101324.34;;;0.64;70.26
76448;BME280;65284;51.040;13.722;2023-04-03T08:05:47;101328.41;;;0.51;69.48
76448;BME280;65284;51.040;13.722;2023-04-03T08:08:17;101320.31;;;0.57;70.03
76448;BME280;65284;51.040;13.722;2023-04-03T08:10:51;101321.00;;;0.40;70.22
76448;BME280;65284;51.040;13.722;2023-04-03T08:13:19;101321.88;;;0.61;70.55
76448;BME280;65284;51.040;13.722;2023-04-03T08:15:45;101322.19;;;0.74;70.65
76448;BME280;65284;51.040;13.722;2023-04-03T08:18:13;101323.31;;;0.68;70.15
76448;BME280;65284;51.040;13.722;2023-04-03T08:20:41;101325.75;;;0.73;70.28
76448;BME280;65284;51.040;13.722;2023-04-03T08:23:08;101324.22;;;0.87;69.87
76448;BME280;65284;51.040;13.722;2023-04-03T08:25:39;101309.56;;;1.04;69.20
76448;BME280;65284;51.040;13.722;2023-04-03T08:28:07;101314.66;;;1.07;68.77
76448;BME280;65284;51.040;13.722;2023-04-03T08:30:33;101321.66;;;1.06;68.15
76448;BME280;65284;51.040;13.722;2023-04-03T08:33:01;101323.81;;;0.97;68.50
76448;BME280;65284;51.040;13.722;2023-04-03T08:35:28;101324.91;;;1.11;68.48
76448;BME280;65284;51.040;13.722;2023-04-03T08:37:55;101326.13;;;1.23;67.87
76448;BME280;65284;51.040;13.722;2023-04-03T08:40:22;101322.19;;;1.33;67.63
76448;BME280;65284;51.040;13.722;2023-04-03T08:45:45;101324.78;;;1.54;66.60
76448;BME280;65284;51.040;13.722;2023-04-03T08:48:31;101331.22;;;1.26;67.03
76448;BME280;65284;51.040;13.722;2023-04-03T08:51:02;101334.50;;;1.31;66.98
76448;BME280;65284;51.040;13.722;2023-04-03T08:53:40;101333.09;;;1.24;67.39
76448;BME280;65284;51.040;13.722;2023-04-03T08:56:10;101329.59;;;1.24;67.26
76448;BME280;65284;51.040;13.722;2023-04-03T08:58:50;101328.91;;;1.20;67.76
76448;BME280;65284;51.040;13.722;2023-04-03T09:01:24;101330.06;;;1.33;67.49
76448;BME280;65284;51.040;13.722;2023-04-03T09:03:52;101344.84;;;1.34;66.88
76448;BME280;65284;51.040;13.722;2023-04-03T09:06:21;101334.09;;;1.41;67.03
76448;BME280;65284;51.040;13.722;2023-04-03T09:09:11;101331.56;;;1.39;67.12
76448;BME280;65284;51.040;13.722;2023-04-03T09:12:15;101329.56;;;1.44;66.78
76448;BME280;65284;51.040;13.722;2023-04-03T09:14:56;101333.16;;;1.42;66.58
76448;BME280;65284;51.040;13.722;2023-04-03T09:17:46;101326.16;;;1.61;66.84
76448;BME280;65284;51.040;13.722;2023-04-03T09:20:46;101324.63;;;1.57;65.88
76448;BME280;65284;51.040;13.722;2023-04-03T09:23:18;101320.31;;;1.92;65.58
76448;BME280;65284;51.040;13.722;2023-04-03T09:25:47;101315.97;;;1.93;64.93
76448;BME280;65284;51.040;13.722;2023-04-03T09:28:14;101317.34;;;2.00;64.27
76448;BME280;65284;51.040;13.722;2023-04-03T09:30:40;101322.88;;;1.94;64.23
76448;BME280;65284;51.040;13.722;2023-04-03T09:33:11;101321.50;;;2.04;64.38
76448;BME280;65284;51.040;13.722;2023-04-03T09:35:40;101322.16;;;2.09;63.95
76448;BME280;65284;51.040;13.722;2023-04-03T09:38:17;101321.16;;;2.12;63.21
76448;BME280;65284;51.040;13.722;2023-04-03T09:40:45;101318.78;;;2.07;62.99
76448;BME280;65284;51.040;13.722;2023-04-03T09:43:26;101322.28;;;2.06;63.85
76448;BME280;65284;51.040;13.722;2023-04-03T09:45:53;101321.38;;;2.07;63.84
76448;BME280;65284;51.040;13.722;2023-04-03T09:48:24;101316.91;;;2.09;63.67
76448;BME280;65284;51.040;13.722;2023-04-03T09:50:53;101313.94;;;2.17;64.02
76448;BME280;65284;51.040;13.722;2023-04-03T09:53:37;101308.00;;;2.13;62.63
76448;BME280;65284;51.040;13.722;2023-04-03T09:56:27;101310.16;;;2.22;62.67
76448;BME280;65284;51.040;13.722;2023-04-03T10:04:09;101301.13;;;2.45;59.77
76448;BME280;65284;51.040;13.722;2023-04-03T10:06:40;101301.69;;;2.52;58.89
76448;BME280;65284;51.040;13.722;2023-04-03T10:09:25;101293.13;;;2.48;56.84
76448;BME280;65284;51.040;13.722;2023-04-03T10:14:25;101281.31;;;2.57;57.93
76448;BME280;65284;51.040;13.722;2023-04-03T10:17:02;101297.50;;;2.48;59.31
76448;BME280;65284;51.040;13.722;2023-04-03T10:19:32;101280.09;;;2.47;59.98
76448;BME280;65284;51.040;13.722;2023-04-03T10:22:04;101278.41;;;2.63;59.19
76448;BME280;65284;51.040;13.722;2023-04-03T10:24:52;101287.00;;;2.83;58.00
76448;BME280;65284;51.040;13.722;2023-04-03T10:27:30;101283.38;;;2.68;58.22
76448;BME280;65284;51.040;13.722;2023-04-03T10:35:38;101274.66;;;2.85;55.60
76448;BME280;65284;51.040;13.722;2023-04-03T10:38:33;101271.25;;;2.83;55.72
76448;BME280;65284;51.040;13.722;2023-04-03T10:44:08;101273.00;;;3.00;53.06
76448;BME280;65284;51.040;13.722;2023-04-03T10:46:44;101264.91;;;3.20;54.21
76448;BME280;65284;51.040;13.722;2023-04-03T10:52:07;101259.84;;;3.49;53.12
76448;BME280;65284;51.040;13.722;2023-04-03T10:55:09;101264.84;;;3.53;52.34
76448;BME280;65284;51.040;13.722;2023-04-03T10:57:40;101250.97;;;3.67;51.41
76448;BME280;65284;51.040;13.722;2023-04-03T11:00:17;101253.06;;;3.60;50.60
76448;BME280;65284;51.040;13.722;2023-04-03T11:02:53;101253.41;;;3.54;50.73
76448;BME280;65284;51.040;13.722;2023-04-03T11:05:48;101246.13;;;3.59;50.68
76448;BME280;65284;51.040;13.722;2023-04-03T11:08:42;101249.50;;;3.61;51.00
76448;BME280;65284;51.040;13.722;2023-04-03T11:11:22;101244.00;;;3.50;51.39
76448;BME280;65284;51.040;13.722;2023-04-03T11:14:00;101246.88;;;3.46;50.05
76448;BME280;65284;51.040;13.722;2023-04-03T11:16:31;101259.84;;;3.33;50.45
76448;BME280;65284;51.040;13.722;2023-04-03T11:19:18;101256.25;;;3.18;50.09
76448;BME280;65284;51.040;13.722;2023-04-03T11:21:54;101242.19;;;3.19;50.69
76448;BME280;65284;51.040;13.722;2023-04-03T11:24:27;101257.44;;;3.28;50.97
76448;BME280;65284;51.040;13.722;2023-04-03T11:26:55;101238.59;;;3.37;50.45
76448;BME280;65284;51.040;13.722;2023-04-03T11:29:26;101243.41;;;3.45;50.71
76448;BME280;65284;51.040;13.722;2023-04-03T11:32:21;101229.38;;;3.46;50.41
76448;BME280;65284;51.040;13.722;2023-04-03T11:34:56;101228.84;;;3.55;49.86
76448;BME280;65284;51.040;13.722;2023-04-03T11:37:33;101226.97;;;3.57;48.06
76448;BME280;65284;51.040;13.722;2023-04-03T11:40:06;101227.13;;;3.54;47.63
76448;BME280;65284;51.040;13.722;2023-04-03T11:42:40;101228.41;;;3.47;48.62
76448;BME280;65284;51.040;13.722;2023-04-03T11:45:27;101226.13;;;3.41;49.93
76448;BME280;65284;51.040;13.722;2023-04-03T11:48:09;101228.16;;;3.52;50.13
76448;BME280;65284;51.040;13.722;2023-04-03T11:50:51;101229.50;;;3.43;50.35
76448;BME280;65284;51.040;13.722;2023-04-03T11:53:32;101229.19;;;3.49;50.12
76448;BME280;65284;51.040;13.722;2023-04-03T12:04:12;101221.06;;;3.38;51.24
76448;BME280;65284;51.040;13.722;2023-04-03T12:06:50;101241.47;;;3.33;51.68
76448;BME280;65284;51.040;13.722;2023-04-03T12:09:26;101256.09;;;3.37;51.21
76448;BME280;65284;51.040;13.722;2023-04-03T12:11:55;101224.53;;;3.23;50.65
76448;BME280;65284;51.040;13.722;2023-04-03T12:14:23;101212.91;;;3.27;50.31
76448;BME280;65284;51.040;13.722;2023-04-03T12:16:53;101226.47;;;3.35;49.42
76448;BME280;65284;51.040;13.722;2023-04-03T12:19:31;101221.06;;;3.38;49.09
76448;BME280;65284;51.040;13.722;2023-04-03T12:22:10;101221.06;;;3.38;48.85
76448;BME280;65284;51.040;13.722;2023-04-03T12:24:42;101226.97;;;3.57;48.45
76448;BME280;65284;51.040;13.722;2023-04-03T12:27:27;101214.25;;;3.65;48.64
76448;BME280;65284;51.040;13.722;2023-04-03T12:30:04;101216.88;;;3.65;48.66
76448;BME280;65284;51.040;13.722;2023-04-03T12:38:25;101215.44;;;3.60;49.57
76448;BME280;65284;51.040;13.722;2023-04-03T12:41:27;101216.63;;;3.54;49.27
76448;BME280;65284;51.040;13.722;2023-04-03T12:47:23;101218.50;;;3.52;49.48
76448;BME280;65284;51.040;13.722;2023-04-03T12:49:50;101222.31;;;3.62;49.39
76448;BME280;65284;51.040;13.722;2023-04-03T12:52:29;101237.63;;;3.54;50.49
76448;BME280;65284;51.040;13.722;2023-04-03T12:54:56;101246.97;;;3.44;50.55
76448;BME280;65284;51.040;13.722;2023-04-03T12:57:26;101228.16;;;3.36;51.43
76448;BME280;65284;51.040;13.722;2023-04-03T12:59:53;101224.41;;;3.40;51.02
76448;BME280;65284;51.040;13.722;2023-04-03T13:02:31;101215.28;;;3.47;51.50
76448;BME280;65284;51.040;13.722;2023-04-03T13:05:07;101212.16;;;3.56;51.03
76448;BME280;65284;51.040;13.722;2023-04-03T13:07:36;101211.91;;;3.61;50.36
76448;BME280;65284;51.040;13.722;2023-04-03T13:12:48;101225.59;;;3.66;50.93
76448;BME280;65284;51.040;13.722;2023-04-03T13:15:22;101220.00;;;3.72;50.99
76448;BME280;65284;51.040;13.722;2023-04-03T13:17:49;101213.91;;;3.72;50.73
76448;BME280;65284;51.040;13.722;2023-04-03T13:20:29;101217.88;;;3.79;51.07
76448;BME280;65284;51.040;13.722;2023-04-03T13:22:59;101223.41;;;3.58;50.24
76448;BME280;65284;51.040;13.722;2023-04-03T13:25:30;101215.75;;;3.70;50.13
76448;BME280;65284;51.040;13.722;2023-04-03T13:27:59;101219.81;;;3.75;49.69
76448;BME280;65284;51.040;13.722;2023-04-03T13:30:40;101211.19;;;3.73;49.94
76448;BME280;65284;51.040;13.722;2023-04-03T13:33:23;101209.84;;;3.96;48.76
76448;BME280;65284;51.040;13.722;2023-04-03T13:36:20;101217.91;;;3.93;49.46
76448;BME280;65284;51.040;13.722;2023-04-03T13:39:05;101202.78;;;4.13;48.73
76448;BME280;65284;51.040;13.722;2023-04-03T13:41:34;101211.97;;;4.05;49.11
76448;BME280;65284;51.040;13.722;2023-04-03T13:46:51;101198.06;;;4.03;49.19
76448;BME280;65284;51.040;13.722;2023-04-03T13:51:55;101220.47;;;3.95;49.75
76448;BME280;65284;51.040;13.722;2023-04-03T13:54:36;101190.31;;;3.86;50.57
76448;BME280;65284;51.040;13.722;2023-04-03T13:57:14;101197.59;;;3.81;50.79
76448;BME280;65284;51.040;13.722;2023-04-03T13:59:42;101204.41;;;3.85;49.83